Weather at Nome Airport

Public forecast

Using degrees Fahrenheit for public forecast. Weather courtesy of forecast.io.

Current aviation weather report (METAR) for Nome Airport

Retrieved 2021/10/23 00:53 UTC (28 minutes ago):

PAOM 230053Z 03017G27KT 10SM OVC110 04/M04 A2909

Aviation forecast (TAF) for Nome Airport

Retrieved 2021-10-23 00:30 UTC (51 minutes ago):

TAF PAOM 222329Z 2300/2324 01020KT P6SM SCT060 OVC100 FM230300 01010KT P6SM BKN100 FM231200 33005KT P6SM BKN100